createdAt,value
2023-12-30T00:01:04.313Z,8.70
2023-12-30T00:03:31.575Z,10.65
2023-12-30T00:05:58.697Z,8.60
2023-12-30T00:08:25.883Z,8.70
2023-12-30T00:10:53.534Z,8.40
2023-12-30T00:13:20.755Z,8.52
2023-12-30T00:15:47.809Z,9.98
2023-12-30T00:18:16.294Z,10.07
2023-12-30T00:20:43.483Z,9.55
2023-12-30T00:23:10.625Z,10.95
2023-12-30T00:25:37.805Z,9.43
2023-12-30T00:28:04.969Z,8.07
2023-12-30T00:30:32.131Z,9.07
2023-12-30T00:32:59.560Z,6.80
2023-12-30T00:35:26.814Z,7.18
2023-12-30T00:37:54.642Z,8.10
2023-12-30T00:40:26.679Z,10.95
2023-12-30T00:42:54.715Z,10.30
2023-12-30T00:45:22.300Z,11.45
2023-12-30T00:47:49.591Z,8.35
2023-12-30T00:50:17.134Z,10.00
2023-12-30T00:52:44.193Z,8.93
2023-12-30T00:55:11.405Z,9.90
2023-12-30T00:57:38.480Z,9.20
2023-12-30T01:00:07.140Z,8.23
2023-12-30T01:02:34.148Z,7.50
2023-12-30T01:05:01.261Z,8.30
2023-12-30T01:07:28.484Z,6.32
2023-12-30T01:09:55.939Z,10.23
2023-12-30T01:12:22.942Z,8.82
2023-12-30T01:14:50.109Z,7.32
2023-12-30T01:17:17.213Z,9.95
2023-12-30T01:19:44.517Z,8.98
2023-12-30T01:22:12.332Z,8.57
2023-12-30T01:24:39.427Z,9.90
2023-12-30T01:27:06.444Z,9.57
2023-12-30T01:29:33.471Z,8.40
2023-12-30T01:32:00.460Z,8.93
2023-12-30T01:34:28.018Z,7.85
2023-12-30T01:36:55.918Z,7.07
2023-12-30T01:39:23.183Z,12.00
2023-12-30T01:41:52.912Z,13.52
2023-12-30T01:44:20.272Z,7.90
2023-12-30T01:46:47.798Z,9.30
2023-12-30T01:49:15.340Z,8.27
2023-12-30T01:51:42.631Z,11.43
2023-12-30T01:54:10.612Z,10.02
2023-12-30T01:56:37.857Z,11.85
2023-12-30T01:59:09.697Z,12.27
2023-12-30T02:01:37.368Z,8.63
2023-12-30T02:04:04.999Z,8.95
2023-12-30T02:06:32.166Z,7.50
2023-12-30T02:08:59.386Z,9.48
2023-12-30T02:11:26.765Z,11.23
2023-12-30T02:13:55.572Z,12.38
2023-12-30T02:16:22.631Z,10.30
2023-12-30T02:18:49.960Z,6.25
2023-12-30T02:21:17.172Z,9.00
2023-12-30T02:23:44.388Z,11.35
2023-12-30T02:26:11.406Z,8.57
2023-12-30T02:28:38.553Z,10.85
2023-12-30T02:31:05.916Z,10.02
2023-12-30T02:33:33.226Z,9.23
2023-12-30T02:36:00.249Z,10.15
2023-12-30T02:38:27.251Z,12.40
2023-12-30T02:40:54.389Z,9.52
2023-12-30T02:43:21.531Z,10.00
2023-12-30T02:45:48.596Z,7.22
2023-12-30T02:48:16.115Z,10.23
2023-12-30T02:50:43.235Z,12.40
2023-12-30T02:53:10.235Z,9.27
2023-12-30T02:55:37.294Z,8.60
2023-12-30T02:58:04.547Z,12.18
2023-12-30T03:00:31.682Z,10.27
2023-12-30T03:02:59.894Z,12.55
2023-12-30T03:05:31.835Z,9.30
2023-12-30T03:07:59.944Z,8.27
2023-12-30T03:10:27.156Z,7.70
2023-12-30T03:12:55.053Z,10.25
2023-12-30T03:15:22.203Z,9.07
2023-12-30T03:17:50.364Z,9.23
2023-12-30T03:20:17.561Z,13.23
2023-12-30T03:22:44.599Z,11.50
2023-12-30T03:25:11.669Z,8.55
2023-12-30T03:27:38.726Z,9.63
2023-12-30T03:30:07.133Z,9.80
2023-12-30T03:32:34.431Z,8.98
2023-12-30T03:35:01.636Z,12.02
2023-12-30T03:37:28.803Z,10.32
2023-12-30T03:39:58.741Z,12.38
2023-12-30T03:42:28.363Z,10.25
2023-12-30T03:44:55.606Z,14.00
2023-12-30T03:49:49.829Z,8.38
2023-12-30T03:52:17.024Z,12.90
2023-12-30T03:54:45.610Z,14.75
2023-12-30T03:57:15.163Z,10.77
2023-12-30T03:59:42.241Z,10.23
2023-12-30T04:02:09.448Z,10.90
2023-12-30T04:04:37.163Z,13.65
2023-12-30T04:07:04.475Z,9.50
2023-12-30T04:09:31.578Z,12.82
2023-12-30T04:11:58.909Z,10.20
2023-12-30T04:14:25.990Z,20.15
2023-12-30T04:16:53.167Z,12.57
2023-12-30T04:19:20.324Z,11.50
2023-12-30T04:21:47.476Z,9.50
2023-12-30T04:24:14.712Z,11.25
2023-12-30T04:26:42.478Z,16.30
2023-12-30T04:29:09.582Z,13.80
2023-12-30T04:31:36.963Z,12.68
2023-12-30T04:34:04.337Z,13.15
2023-12-30T04:36:31.506Z,11.18
2023-12-30T04:38:58.605Z,11.38
2023-12-30T04:41:25.873Z,14.85
2023-12-30T04:43:53.029Z,11.77
2023-12-30T04:46:20.090Z,13.80
2023-12-30T04:48:47.298Z,12.27
2023-12-30T04:51:14.709Z,11.35
2023-12-30T04:53:41.786Z,12.25
2023-12-30T04:56:15.491Z,15.98
2023-12-30T04:58:42.659Z,12.85
2023-12-30T05:01:09.928Z,10.80
2023-12-30T05:03:37.359Z,15.18
2023-12-30T05:06:04.663Z,11.05
2023-12-30T05:08:32.840Z,12.70
2023-12-30T05:11:00.092Z,12.40
2023-12-30T05:13:27.210Z,12.57
2023-12-30T05:15:54.583Z,15.50
2023-12-30T05:18:21.780Z,12.95
2023-12-30T05:20:49.374Z,15.38
2023-12-30T05:23:16.702Z,13.65
2023-12-30T05:25:44.283Z,13.88
2023-12-30T05:28:11.413Z,16.13
2023-12-30T05:30:38.496Z,11.27
2023-12-30T05:33:06.176Z,15.02
2023-12-30T05:35:34.000Z,11.55
2023-12-30T05:38:01.046Z,11.10
2023-12-30T05:40:28.195Z,9.73
2023-12-30T05:42:55.304Z,11.32
2023-12-30T05:45:22.407Z,14.82
2023-12-30T05:47:49.468Z,11.75
2023-12-30T05:50:16.513Z,12.82
2023-12-30T05:52:43.558Z,11.68
2023-12-30T05:55:10.715Z,15.95
2023-12-30T05:57:37.889Z,12.20
2023-12-30T06:00:05.771Z,8.48
2023-12-30T06:02:39.613Z,13.93
2023-12-30T06:05:07.237Z,11.65
2023-12-30T06:07:34.595Z,11.38
2023-12-30T06:10:01.909Z,12.05
2023-12-30T06:12:28.997Z,14.65
2023-12-30T06:14:56.326Z,16.92
2023-12-30T06:17:23.383Z,12.18
2023-12-30T06:19:51.714Z,9.20
2023-12-30T06:22:18.782Z,12.73
2023-12-30T06:24:45.906Z,13.75
2023-12-30T06:27:13.027Z,15.25
2023-12-30T06:29:40.177Z,13.65
2023-12-30T06:32:07.764Z,15.70
2023-12-30T06:34:35.987Z,14.18
2023-12-30T06:37:03.302Z,11.63
2023-12-30T06:39:30.312Z,11.85
2023-12-30T06:42:01.625Z,10.55
2023-12-30T06:44:29.262Z,13.40
2023-12-30T06:46:56.683Z,11.88
2023-12-30T06:49:23.777Z,12.98
2023-12-30T06:51:50.951Z,11.85
2023-12-30T06:54:18.066Z,14.73
2023-12-30T06:56:45.389Z,7.53
2023-12-30T06:59:15.477Z,15.15
2023-12-30T07:01:42.869Z,12.63
2023-12-30T07:04:10.800Z,10.93
2023-12-30T07:06:38.040Z,10.75
2023-12-30T07:09:05.076Z,9.98
2023-12-30T07:11:32.386Z,12.18
2023-12-30T07:13:59.525Z,10.30
2023-12-30T07:16:26.659Z,13.40
2023-12-30T07:18:53.809Z,10.32
2023-12-30T07:21:21.092Z,12.90
2023-12-30T07:23:48.380Z,10.23
2023-12-30T07:26:15.416Z,13.63
2023-12-30T07:28:42.601Z,9.88
2023-12-30T07:31:09.885Z,10.35
2023-12-30T07:33:37.145Z,9.45
2023-12-30T07:36:08.883Z,10.65
2023-12-30T07:38:35.982Z,12.05
2023-12-30T07:41:03.365Z,12.88
2023-12-30T07:43:30.419Z,8.82
2023-12-30T07:45:58.730Z,12.95
2023-12-30T07:48:25.958Z,10.18
2023-12-30T07:50:53.078Z,11.52
2023-12-30T07:53:20.191Z,11.95
2023-12-30T07:55:47.251Z,12.25
2023-12-30T07:58:14.840Z,12.05
2023-12-30T08:00:41.930Z,13.25
2023-12-30T08:03:09.010Z,12.48
2023-12-30T08:05:36.261Z,14.95
2023-12-30T08:08:04.759Z,16.27
2023-12-30T08:10:33.802Z,9.90
2023-12-30T08:13:00.990Z,14.52
2023-12-30T08:15:29.309Z,12.93
2023-12-30T08:17:56.592Z,13.38
2023-12-30T08:20:23.641Z,12.60
2023-12-30T08:22:51.465Z,17.00
2023-12-30T08:25:18.686Z,12.35
2023-12-30T08:27:45.848Z,12.40
2023-12-30T08:30:13.257Z,15.75
2023-12-30T08:32:40.317Z,12.38
2023-12-30T08:35:09.065Z,10.32
2023-12-30T08:37:37.344Z,14.07
2023-12-30T08:40:07.399Z,9.85
2023-12-30T08:42:35.854Z,10.88
2023-12-30T08:45:05.871Z,11.95
2023-12-30T08:47:34.641Z,9.90
2023-12-30T08:50:02.525Z,12.27
2023-12-30T08:52:29.804Z,10.40
2023-12-30T08:54:57.335Z,13.55
2023-12-30T08:57:25.831Z,12.43
2023-12-30T08:59:53.007Z,12.45
2023-12-30T09:02:20.065Z,8.52
2023-12-30T09:04:47.145Z,14.65
2023-12-30T09:07:14.953Z,12.68
2023-12-30T09:09:42.343Z,11.30
2023-12-30T09:12:09.490Z,9.82
2023-12-30T09:14:37.001Z,14.15
2023-12-30T09:17:04.111Z,11.73
2023-12-30T09:19:31.776Z,12.55
2023-12-30T09:21:59.084Z,14.63
2023-12-30T09:24:26.286Z,11.32
2023-12-30T09:26:53.380Z,11.63
2023-12-30T09:29:20.517Z,10.90
2023-12-30T09:31:47.681Z,12.80
2023-12-30T09:34:19.349Z,11.45
2023-12-30T09:36:50.567Z,11.65
2023-12-30T09:39:17.616Z,10.57
2023-12-30T09:41:44.591Z,13.63
2023-12-30T09:44:13.619Z,8.25
2023-12-30T09:46:41.768Z,13.25
2023-12-30T09:49:09.904Z,11.32
2023-12-30T09:51:37.073Z,11.88
2023-12-30T09:54:04.471Z,11.80
2023-12-30T09:56:32.929Z,10.35
2023-12-30T09:59:01.968Z,11.98
2023-12-30T10:01:31.182Z,10.77
2023-12-30T10:03:58.597Z,16.00
2023-12-30T10:06:26.678Z,11.93
2023-12-30T10:08:54.742Z,12.05
2023-12-30T10:11:21.882Z,10.68
2023-12-30T10:13:49.026Z,11.02
2023-12-30T10:16:16.457Z,12.15
2023-12-30T10:18:44.307Z,11.48
2023-12-30T10:21:11.581Z,10.30
2023-12-30T10:23:39.150Z,13.30
2023-12-30T10:26:06.244Z,13.98
2023-12-30T10:28:33.590Z,11.73
2023-12-30T10:31:03.437Z,13.13
2023-12-30T10:33:31.730Z,12.25
2023-12-30T10:35:58.979Z,11.07
2023-12-30T10:38:27.791Z,14.40
2023-12-30T10:40:55.860Z,13.60
2023-12-30T10:43:23.223Z,10.23
2023-12-30T10:46:00.950Z,12.10
2023-12-30T10:48:34.326Z,18.02
2023-12-30T10:51:02.706Z,14.27
2023-12-30T10:53:41.164Z,14.10
2023-12-30T10:56:10.886Z,15.63
2023-12-30T10:58:41.470Z,14.07
2023-12-30T11:01:09.729Z,16.48
2023-12-30T11:03:37.297Z,18.60
2023-12-30T11:06:57.148Z,13.50
2023-12-30T11:09:31.032Z,15.93
2023-12-30T11:12:03.114Z,12.77
2023-12-30T11:14:30.453Z,14.70
2023-12-30T11:16:58.682Z,14.25
2023-12-30T11:19:33.749Z,15.05
2023-12-30T11:22:07.345Z,17.98
2023-12-30T11:24:35.350Z,14.43
2023-12-30T11:27:02.428Z,11.73
2023-12-30T11:29:30.508Z,13.15
2023-12-30T11:32:00.372Z,13.63
2023-12-30T11:34:27.978Z,13.68
2023-12-30T11:36:59.397Z,12.82
2023-12-30T11:39:32.278Z,15.40
2023-12-30T11:42:01.099Z,11.80
2023-12-30T11:44:31.380Z,15.50
2023-12-30T11:46:59.719Z,14.18
2023-12-30T11:49:27.666Z,13.80
2023-12-30T11:52:06.028Z,12.30
2023-12-30T11:54:34.146Z,12.23
2023-12-30T11:57:01.873Z,12.15
2023-12-30T11:59:29.346Z,13.30
2023-12-30T12:02:15.817Z,11.45
2023-12-30T12:04:43.982Z,12.00
2023-12-30T12:07:12.229Z,12.73
2023-12-30T12:09:42.046Z,13.38
2023-12-30T12:12:10.676Z,13.38
2023-12-30T12:14:38.300Z,11.77
2023-12-30T12:17:09.260Z,13.52
2023-12-30T12:19:38.904Z,12.05
2023-12-30T12:22:06.435Z,10.63
2023-12-30T12:24:33.842Z,12.40
2023-12-30T12:27:00.940Z,14.85
2023-12-30T12:29:28.101Z,11.68
2023-12-30T12:31:56.044Z,13.70
2023-12-30T12:34:32.503Z,14.23
2023-12-30T12:36:59.723Z,14.25
2023-12-30T12:39:26.790Z,14.18
2023-12-30T12:41:54.088Z,10.05
2023-12-30T12:44:21.157Z,12.68
2023-12-30T12:46:48.275Z,12.93
2023-12-30T12:49:19.197Z,16.15
2023-12-30T12:51:46.983Z,12.48
2023-12-30T12:54:14.019Z,13.75
2023-12-30T12:56:41.731Z,17.30
2023-12-30T12:59:08.964Z,14.52
2023-12-30T13:01:37.429Z,17.25
2023-12-30T13:04:05.265Z,13.05
2023-12-30T13:06:32.563Z,12.77
2023-12-30T13:09:01.499Z,14.57
2023-12-30T13:11:28.884Z,16.98
2023-12-30T13:13:57.025Z,15.68
2023-12-30T13:16:25.444Z,15.32
2023-12-30T13:18:53.532Z,20.35
2023-12-30T13:21:20.925Z,14.45
2023-12-30T13:23:50.657Z,17.02
2023-12-30T13:26:19.715Z,14.32
2023-12-30T13:28:47.327Z,12.05
2023-12-30T13:31:18.522Z,16.08
2023-12-30T13:33:45.926Z,16.90
2023-12-30T13:36:13.705Z,13.25
2023-12-30T13:38:44.743Z,16.10
2023-12-30T13:41:12.110Z,12.90
2023-12-30T13:43:39.360Z,17.70
2023-12-30T13:46:25.083Z,15.75
2023-12-30T13:49:10.560Z,16.13
2023-12-30T13:51:38.879Z,16.63
2023-12-30T13:54:06.646Z,14.20
2023-12-30T13:56:36.978Z,14.68
2023-12-30T13:59:09.796Z,19.02
2023-12-30T14:01:38.389Z,16.65
2023-12-30T14:04:08.522Z,14.35
2023-12-30T14:06:39.267Z,12.85
2023-12-30T14:09:15.520Z,17.70
2023-12-30T14:11:48.604Z,15.05
2023-12-30T14:14:16.511Z,15.38
2023-12-30T14:16:45.644Z,17.90
2023-12-30T14:19:14.391Z,17.50
2023-12-30T14:21:43.218Z,20.02
2023-12-30T14:24:12.888Z,17.20
2023-12-30T14:26:40.785Z,16.60
2023-12-30T14:29:07.994Z,15.98
2023-12-30T14:31:36.333Z,19.27
2023-12-30T14:34:04.449Z,21.58
2023-12-30T14:36:31.806Z,17.38
2023-12-30T14:39:00.765Z,17.50
2023-12-30T14:41:27.914Z,22.35
2023-12-30T14:43:55.020Z,19.00
2023-12-30T14:46:22.197Z,18.85
2023-12-30T14:48:49.374Z,20.98
2023-12-30T14:51:17.365Z,17.58
2023-12-30T14:53:44.981Z,20.10
2023-12-30T14:56:12.352Z,19.50
2023-12-30T14:58:39.498Z,19.45
2023-12-30T15:01:08.460Z,20.35
2023-12-30T15:03:35.618Z,17.60
2023-12-30T15:06:04.050Z,18.08
2023-12-30T15:08:33.765Z,19.30
2023-12-30T15:11:01.511Z,23.08
2023-12-30T15:13:28.794Z,20.10
2023-12-30T15:15:55.934Z,17.40
2023-12-30T15:18:23.232Z,22.58
2023-12-30T15:20:50.523Z,19.27
2023-12-30T15:23:18.206Z,21.02
2023-12-30T15:25:45.685Z,25.40
2023-12-30T15:28:13.476Z,21.25
2023-12-30T15:30:40.808Z,19.00
2023-12-30T15:33:08.247Z,23.40
2023-12-30T15:35:35.935Z,19.85
2023-12-30T15:38:03.255Z,23.25
2023-12-30T15:40:30.459Z,22.80
2023-12-30T15:42:57.757Z,17.92
2023-12-30T15:45:24.937Z,21.23
2023-12-30T15:47:52.322Z,21.02
2023-12-30T15:50:19.684Z,21.85
2023-12-30T15:52:46.886Z,21.52
2023-12-30T15:55:15.233Z,21.45
2023-12-30T15:57:42.545Z,19.17
2023-12-30T16:00:11.165Z,19.13
2023-12-30T16:02:38.790Z,22.45
2023-12-30T16:05:06.342Z,25.08
2023-12-30T16:07:33.536Z,23.85
2023-12-30T16:10:00.903Z,21.95
2023-12-30T16:12:28.122Z,20.98
2023-12-30T16:14:55.128Z,24.00
2023-12-30T16:17:22.182Z,19.75
2023-12-30T16:19:49.486Z,21.40
2023-12-30T16:22:17.051Z,23.35
2023-12-30T16:24:44.058Z,20.13
2023-12-30T16:27:11.739Z,20.50
2023-12-30T16:29:43.425Z,23.08
2023-12-30T16:32:10.828Z,19.27
2023-12-30T16:34:38.242Z,20.08
2023-12-30T16:37:06.160Z,17.92
2023-12-30T16:39:33.231Z,20.17
2023-12-30T16:42:00.240Z,19.23
2023-12-30T16:44:27.281Z,17.55
2023-12-30T16:46:54.371Z,21.85
2023-12-30T16:49:21.592Z,23.92
2023-12-30T16:51:48.676Z,22.17
2023-12-30T16:54:15.806Z,24.25
2023-12-30T16:56:43.005Z,22.85
2023-12-30T16:59:10.140Z,26.13
2023-12-30T17:01:37.478Z,25.90
2023-12-30T17:04:04.993Z,23.95
2023-12-30T17:06:33.862Z,20.55
2023-12-30T17:09:02.204Z,20.77
2023-12-30T17:11:29.280Z,25.20
2023-12-30T17:13:56.706Z,21.55
2023-12-30T17:16:23.935Z,20.00
2023-12-30T17:18:51.117Z,20.25
2023-12-30T17:21:18.193Z,22.92
2023-12-30T17:23:45.638Z,18.13
2023-12-30T17:26:13.027Z,21.60
2023-12-30T17:28:40.142Z,18.83
2023-12-30T17:31:09.358Z,18.55
2023-12-30T17:33:36.502Z,16.42
2023-12-30T17:36:04.246Z,22.08
2023-12-30T17:38:31.369Z,21.30
2023-12-30T17:40:59.441Z,19.95
2023-12-30T17:43:26.537Z,19.92
2023-12-30T17:45:53.595Z,23.73
2023-12-30T17:48:20.754Z,22.30
2023-12-30T17:50:47.853Z,22.25
2023-12-30T17:53:14.951Z,19.08
2023-12-30T17:55:42.265Z,21.55
2023-12-30T17:58:09.723Z,18.67
2023-12-30T18:00:37.029Z,15.38
2023-12-30T18:03:07.168Z,19.02
2023-12-30T18:05:34.395Z,17.40
2023-12-30T18:08:01.563Z,19.30
2023-12-30T18:10:28.634Z,16.42
2023-12-30T18:12:55.704Z,17.17
2023-12-30T18:15:22.855Z,19.40
2023-12-30T18:17:49.993Z,18.73
2023-12-30T18:20:19.132Z,15.07
2023-12-30T18:22:48.054Z,15.98
2023-12-30T18:25:15.323Z,13.63
2023-12-30T18:27:42.606Z,16.02
2023-12-30T18:30:11.573Z,12.82
2023-12-30T18:32:39.114Z,14.05
2023-12-30T18:35:07.160Z,13.60
2023-12-30T18:37:35.322Z,11.68
2023-12-30T18:40:04.773Z,10.10
2023-12-30T18:42:32.455Z,10.45
2023-12-30T18:44:59.702Z,11.52
2023-12-30T18:47:27.020Z,12.35
2023-12-30T18:49:54.233Z,13.63
2023-12-30T18:52:22.135Z,13.10
2023-12-30T18:54:49.525Z,11.77
2023-12-30T18:57:17.051Z,11.90
2023-12-30T18:59:44.377Z,11.70
2023-12-30T19:02:12.929Z,11.50
2023-12-30T19:04:49.220Z,10.20
2023-12-30T19:07:16.488Z,14.13
2023-12-30T19:09:43.711Z,10.93
2023-12-30T19:12:10.938Z,9.98
2023-12-30T19:14:38.035Z,9.77
2023-12-30T19:17:05.391Z,10.82
2023-12-30T19:19:32.541Z,13.63
2023-12-30T19:21:59.966Z,10.68
2023-12-30T19:24:27.385Z,9.85
2023-12-30T19:26:54.526Z,7.70
2023-12-30T19:29:21.788Z,8.38
2023-12-30T19:31:48.937Z,8.07
2023-12-30T19:34:17.974Z,9.25
2023-12-30T19:36:45.668Z,11.48
2023-12-30T19:39:13.941Z,11.13
2023-12-30T19:42:01.349Z,10.77
2023-12-30T19:44:28.926Z,11.10
2023-12-30T19:46:56.036Z,12.07
2023-12-30T19:49:23.115Z,10.68
2023-12-30T19:51:50.077Z,15.45
2023-12-30T19:54:17.281Z,11.90
2023-12-30T19:56:44.916Z,11.63
2023-12-30T19:59:12.067Z,10.65
2023-12-30T20:01:39.564Z,12.32
2023-12-30T20:04:06.846Z,13.05
2023-12-30T20:06:36.249Z,9.48
2023-12-30T20:09:03.330Z,10.38
2023-12-30T20:11:30.748Z,7.32
2023-12-30T20:13:57.900Z,11.27
2023-12-30T20:16:25.091Z,10.82
2023-12-30T20:18:52.413Z,15.57
2023-12-30T20:21:19.493Z,10.05
2023-12-30T20:23:47.119Z,11.57
2023-12-30T20:26:14.390Z,10.70
2023-12-30T20:28:41.584Z,10.85
2023-12-30T20:31:09.103Z,11.02
2023-12-30T20:33:37.366Z,12.25
2023-12-30T20:36:06.900Z,12.15
2023-12-30T20:38:35.434Z,10.15
2023-12-30T20:41:02.474Z,9.82
2023-12-30T20:43:29.653Z,12.63
2023-12-30T20:45:57.076Z,10.18
2023-12-30T20:48:24.415Z,11.25
2023-12-30T20:50:51.900Z,11.00
2023-12-30T20:53:18.908Z,11.77
2023-12-30T20:55:45.946Z,12.15
2023-12-30T20:58:13.833Z,11.98
2023-12-30T21:00:41.100Z,9.73
2023-12-30T21:03:08.275Z,10.98
2023-12-30T21:05:35.512Z,10.88
2023-12-30T21:08:02.627Z,9.60
2023-12-30T21:10:31.562Z,10.90
2023-12-30T21:12:58.690Z,10.02
2023-12-30T21:15:26.410Z,12.80
2023-12-30T21:17:55.826Z,11.35
2023-12-30T21:20:23.078Z,13.45
2023-12-30T21:22:50.246Z,13.15
2023-12-30T21:25:23.762Z,13.13
2023-12-30T21:27:54.137Z,10.82
2023-12-30T21:30:23.107Z,12.27
2023-12-30T21:32:50.996Z,14.07
2023-12-30T21:35:20.123Z,10.68
2023-12-30T21:37:48.445Z,9.55
2023-12-30T21:40:18.029Z,13.98
2023-12-30T21:42:45.337Z,9.82
2023-12-30T21:45:12.514Z,11.93
2023-12-30T21:47:39.649Z,10.25
2023-12-30T21:50:08.311Z,10.15
2023-12-30T21:52:38.646Z,11.25
2023-12-30T21:55:06.893Z,10.73
2023-12-30T21:57:34.165Z,10.27
2023-12-30T22:00:01.949Z,11.65
2023-12-30T22:02:31.439Z,7.97
2023-12-30T22:04:58.789Z,10.60
2023-12-30T22:07:25.825Z,9.63
2023-12-30T22:09:53.200Z,9.63
2023-12-30T22:12:20.212Z,9.55
2023-12-30T22:14:47.382Z,9.95
2023-12-30T22:17:15.966Z,10.80
2023-12-30T22:19:43.044Z,10.73
2023-12-30T22:22:10.192Z,9.80
2023-12-30T22:24:37.291Z,10.27
2023-12-30T22:27:04.916Z,8.93
2023-12-30T22:29:31.926Z,7.88
2023-12-30T22:31:59.430Z,10.27
2023-12-30T22:34:26.600Z,10.38
2023-12-30T22:36:53.784Z,8.25
2023-12-30T22:39:21.073Z,8.15
2023-12-30T22:41:48.123Z,6.22
2023-12-30T22:44:15.141Z,10.82
2023-12-30T22:46:43.792Z,7.75
2023-12-30T22:49:12.850Z,7.57
2023-12-30T22:51:51.639Z,7.35
2023-12-30T22:54:19.147Z,6.38
2023-12-30T22:56:46.695Z,7.07
2023-12-30T22:59:19.096Z,7.03
2023-12-30T23:01:46.270Z,9.45
2023-12-30T23:04:14.119Z,5.68
2023-12-30T23:06:41.437Z,6.05
2023-12-30T23:09:08.515Z,6.00
2023-12-30T23:11:35.544Z,6.30
2023-12-30T23:14:02.562Z,4.32
2023-12-30T23:16:29.887Z,6.90
2023-12-30T23:18:57.558Z,4.88
2023-12-30T23:21:24.911Z,6.38
2023-12-30T23:23:52.013Z,6.28
2023-12-30T23:26:19.241Z,6.03
2023-12-30T23:28:46.483Z,7.90
2023-12-30T23:31:13.854Z,5.65
2023-12-30T23:33:42.064Z,5.63
2023-12-30T23:36:13.223Z,5.70
2023-12-30T23:38:40.215Z,5.55
2023-12-30T23:41:07.410Z,5.63
2023-12-30T23:43:34.621Z,6.07
2023-12-30T23:46:01.778Z,4.88
2023-12-30T23:48:28.809Z,5.07
2023-12-30T23:50:55.885Z,4.80
2023-12-30T23:53:23.083Z,5.30
2023-12-30T23:55:51.202Z,5.07
2023-12-30T23:58:18.405Z,5.65
